This is the latest recevied weather packets stored in our database for station/object N2RFA-13. If no packets are shown the sender has not sent any weather packets the latest 10 day(s).
| Time | Temp. | Humidity | Pressure | Rain* | Wind** | Luminosity | Snow |
|---|---|---|---|---|---|---|---|
| 1777366845 | 3.33° C | 89% | 1023.4 hPa | 0 mm | - | - | - |
| 1777365945 | 3.33° C | 89% | 1023.4 hPa | 0 mm | - | - | - |
| 1777362340 | 3.89° C | 88% | 1023.7 hPa | 0 mm | - | - | - |
| 1777361441 | 3.89° C | 88% | 1023.5 hPa | 0 mm | - | - | - |
| 1777352418 | 6.11° C | 82% | 1025.1 hPa | 0 mm | - | - | - |
| 1777346104 | 8.89° C | 73% | 1025.9 hPa | 0 mm | - | - | - |
| 1777345203 | 9.44° C | 70% | 1026.1 hPa | 0 mm | - | - | - |
| 1777338057 | 13.33° C | 60% | 1025.6 hPa | 0 mm | - | - | - |
| 1777337160 | 13.89° C | 58% | 1025.5 hPa | 0 mm | - | - | - |
| 1777333554 | 16.11° C | 50% | 1024.5 hPa | 0 mm | - | - | - |
| 1777321847 | 19.44° C | 39% | 1024.4 hPa | 0 mm | - | - | - |
| 1777319147 | 20.56° C | 39% | 1024 hPa | 0 mm | - | - | - |
| 1777318254 | 20° C | 39% | 1024.1 hPa | 0 mm | - | - | - |
| 1777315561 | 20° C | 39% | 1024.3 hPa | 0 mm | - | - | - |
| 1777311940 | 20.56° C | 40% | 1025 hPa | 0 mm | - | - | - |
| 1777309244 | 21.67° C | 38% | 1025.4 hPa | 0 mm | - | - | - |
| 1777306529 | 20.56° C | 40% | 1025.4 hPa | 0 mm | - | - | - |
| 1777303823 | 19.44° C | 44% | 1025.7 hPa | 0 mm | - | - | - |
| 1777295760 | 14.44° C | 62% | 1025.2 hPa | 0 mm | - | - | - |
| 1777291237 | 6.67° C | 97% | 1024.9 hPa | 0 mm | - | - | - |
| 1777283124 | 2.22° C | 94% | 1023.9 hPa | 0 mm | - | - | - |
| 1777282229 | 2.22° C | 94% | 1024.1 hPa | 0 mm | - | - | - |
| 1777281320 | 2.22° C | 94% | 1024.1 hPa | 0 mm | - | - | - |
| 1777275913 | 2.78° C | 94% | 1024.2 hPa | 0 mm | - | - | - |
| 1777275014 | 2.78° C | 94% | 1024 hPa | 0 mm | - | - | - |
* Rain latest hour (hover to see other rain measurements)
** Current wind speed in m/s (hover to see current wind gust speed)